sensor_id;sensor_type;location;lat;lon;timestamp;P1;durP1;ratioP1;P2;durP2;ratioP2
25437;SDS011;13364;49.084;9.978;2023-07-22T00:00:04;4.90;;;2.22;;
25437;SDS011;13364;49.084;9.978;2023-07-22T00:02:39;4.15;;;2.45;;
25437;SDS011;13364;49.084;9.978;2023-07-22T00:05:06;3.10;;;2.28;;
25437;SDS011;13364;49.084;9.978;2023-07-22T00:07:34;2.83;;;2.38;;
25437;SDS011;13364;49.084;9.978;2023-07-22T00:10:01;4.38;;;2.20;;
25437;SDS011;13364;49.084;9.978;2023-07-22T00:12:28;2.85;;;2.40;;
25437;SDS011;13364;49.084;9.978;2023-07-22T00:14:55;3.45;;;2.42;;
25437;SDS011;13364;49.084;9.978;2023-07-22T00:17:22;4.75;;;2.40;;
25437;SDS011;13364;49.084;9.978;2023-07-22T00:19:51;4.20;;;2.47;;
25437;SDS011;13364;49.084;9.978;2023-07-22T00:22:18;2.78;;;2.35;;
25437;SDS011;13364;49.084;9.978;2023-07-22T00:24:46;3.50;;;2.60;;
25437;SDS011;13364;49.084;9.978;2023-07-22T00:27:14;3.10;;;2.30;;
25437;SDS011;13364;49.084;9.978;2023-07-22T00:29:41;4.97;;;2.80;;
25437;SDS011;13364;49.084;9.978;2023-07-22T00:32:08;3.03;;;2.17;;
25437;SDS011;13364;49.084;9.978;2023-07-22T00:34:36;3.38;;;2.40;;
25437;SDS011;13364;49.084;9.978;2023-07-22T00:39:32;3.30;;;2.20;;
25437;SDS011;13364;49.084;9.978;2023-07-22T00:41:59;3.72;;;2.53;;
25437;SDS011;13364;49.084;9.978;2023-07-22T00:44:26;3.03;;;2.70;;
25437;SDS011;13364;49.084;9.978;2023-07-22T00:46:54;2.92;;;2.40;;
25437;SDS011;13364;49.084;9.978;2023-07-22T00:49:24;3.53;;;2.17;;
25437;SDS011;13364;49.084;9.978;2023-07-22T00:51:52;3.65;;;2.63;;
25437;SDS011;13364;49.084;9.978;2023-07-22T00:54:19;2.90;;;2.22;;
25437;SDS011;13364;49.084;9.978;2023-07-22T00:56:46;3.40;;;1.98;;
25437;SDS011;13364;49.084;9.978;2023-07-22T00:59:14;3.22;;;2.38;;
25437;SDS011;13364;49.084;9.978;2023-07-22T01:01:42;4.93;;;2.30;;
25437;SDS011;13364;49.084;9.978;2023-07-22T01:04:09;5.13;;;2.40;;
25437;SDS011;13364;49.084;9.978;2023-07-22T01:06:37;4.75;;;2.30;;
25437;SDS011;13364;49.084;9.978;2023-07-22T01:09:05;2.70;;;2.42;;
25437;SDS011;13364;49.084;9.978;2023-07-22T01:11:33;4.50;;;2.85;;
25437;SDS011;13364;49.084;9.978;2023-07-22T01:14:00;5.63;;;2.30;;
25437;SDS011;13364;49.084;9.978;2023-07-22T01:16:28;2.85;;;2.58;;
25437;SDS011;13364;49.084;9.978;2023-07-22T01:18:55;3.00;;;2.35;;
25437;SDS011;13364;49.084;9.978;2023-07-22T01:21:23;3.63;;;2.80;;
25437;SDS011;13364;49.084;9.978;2023-07-22T01:23:52;2.42;;;2.20;;
25437;SDS011;13364;49.084;9.978;2023-07-22T01:26:20;3.15;;;2.42;;
25437;SDS011;13364;49.084;9.978;2023-07-22T01:28:47;2.92;;;2.60;;
25437;SDS011;13364;49.084;9.978;2023-07-22T01:31:14;4.10;;;2.83;;
25437;SDS011;13364;49.084;9.978;2023-07-22T01:33:41;3.90;;;3.17;;
25437;SDS011;13364;49.084;9.978;2023-07-22T01:38:57;3.08;;;2.63;;
25437;SDS011;13364;49.084;9.978;2023-07-22T01:41:27;5.07;;;2.92;;
25437;SDS011;13364;49.084;9.978;2023-07-22T01:43:54;3.00;;;2.40;;
25437;SDS011;13364;49.084;9.978;2023-07-22T01:46:21;2.95;;;2.60;;
25437;SDS011;13364;49.084;9.978;2023-07-22T01:48:48;4.85;;;2.60;;
25437;SDS011;13364;49.084;9.978;2023-07-22T01:51:16;2.83;;;2.35;;
25437;SDS011;13364;49.084;9.978;2023-07-22T01:53:43;3.72;;;2.33;;
25437;SDS011;13364;49.084;9.978;2023-07-22T01:56:10;3.58;;;2.33;;
25437;SDS011;13364;49.084;9.978;2023-07-22T01:58:37;3.28;;;2.33;;
25437;SDS011;13364;49.084;9.978;2023-07-22T02:01:04;2.97;;;2.50;;
25437;SDS011;13364;49.084;9.978;2023-07-22T02:03:31;4.03;;;2.33;;
25437;SDS011;13364;49.084;9.978;2023-07-22T02:06:04;4.43;;;2.85;;
25437;SDS011;13364;49.084;9.978;2023-07-22T02:08:32;3.47;;;2.58;;
25437;SDS011;13364;49.084;9.978;2023-07-22T02:11:06;3.78;;;2.53;;
25437;SDS011;13364;49.084;9.978;2023-07-22T02:13:35;3.35;;;2.83;;
25437;SDS011;13364;49.084;9.978;2023-07-22T02:16:02;3.55;;;2.58;;
25437;SDS011;13364;49.084;9.978;2023-07-22T02:18:30;2.55;;;2.25;;
25437;SDS011;13364;49.084;9.978;2023-07-22T02:20:57;3.95;;;2.40;;
25437;SDS011;13364;49.084;9.978;2023-07-22T02:23:24;4.03;;;2.65;;
25437;SDS011;13364;49.084;9.978;2023-07-22T02:25:52;4.47;;;2.80;;
25437;SDS011;13364;49.084;9.978;2023-07-22T02:28:20;2.85;;;2.50;;
25437;SDS011;13364;49.084;9.978;2023-07-22T02:30:49;3.38;;;2.88;;
25437;SDS011;13364;49.084;9.978;2023-07-22T02:33:19;4.15;;;2.42;;
25437;SDS011;13364;49.084;9.978;2023-07-22T02:35:48;3.25;;;2.50;;
25437;SDS011;13364;49.084;9.978;2023-07-22T02:38:15;4.40;;;3.28;;
25437;SDS011;13364;49.084;9.978;2023-07-22T02:40:43;3.65;;;2.30;;
25437;SDS011;13364;49.084;9.978;2023-07-22T02:43:10;3.13;;;2.63;;
25437;SDS011;13364;49.084;9.978;2023-07-22T02:45:37;2.85;;;2.33;;
25437;SDS011;13364;49.084;9.978;2023-07-22T02:48:04;3.25;;;2.80;;
25437;SDS011;13364;49.084;9.978;2023-07-22T02:50:32;6.03;;;2.95;;
25437;SDS011;13364;49.084;9.978;2023-07-22T02:52:59;3.28;;;2.50;;
25437;SDS011;13364;49.084;9.978;2023-07-22T02:55:26;4.78;;;2.72;;
25437;SDS011;13364;49.084;9.978;2023-07-22T02:57:53;4.80;;;2.53;;
25437;SDS011;13364;49.084;9.978;2023-07-22T03:00:20;7.65;;;3.08;;
25437;SDS011;13364;49.084;9.978;2023-07-22T03:05:24;3.28;;;2.58;;
25437;SDS011;13364;49.084;9.978;2023-07-22T03:07:52;2.90;;;2.38;;
25437;SDS011;13364;49.084;9.978;2023-07-22T03:10:19;4.47;;;2.88;;
25437;SDS011;13364;49.084;9.978;2023-07-22T03:12:47;5.60;;;2.90;;
25437;SDS011;13364;49.084;9.978;2023-07-22T03:15:14;3.13;;;2.58;;
25437;SDS011;13364;49.084;9.978;2023-07-22T03:17:41;3.83;;;2.83;;
25437;SDS011;13364;49.084;9.978;2023-07-22T03:20:11;5.75;;;2.65;;
25437;SDS011;13364;49.084;9.978;2023-07-22T03:22:43;3.55;;;2.50;;
25437;SDS011;13364;49.084;9.978;2023-07-22T03:25:10;2.65;;;2.20;;
25437;SDS011;13364;49.084;9.978;2023-07-22T03:27:39;3.92;;;2.70;;
25437;SDS011;13364;49.084;9.978;2023-07-22T03:30:06;3.40;;;2.53;;
25437;SDS011;13364;49.084;9.978;2023-07-22T03:32:34;3.38;;;2.47;;
25437;SDS011;13364;49.084;9.978;2023-07-22T03:35:01;3.50;;;2.40;;
25437;SDS011;13364;49.084;9.978;2023-07-22T03:37:29;3.75;;;3.00;;
25437;SDS011;13364;49.084;9.978;2023-07-22T03:39:56;2.75;;;2.50;;
25437;SDS011;13364;49.084;9.978;2023-07-22T03:42:23;2.88;;;2.47;;
25437;SDS011;13364;49.084;9.978;2023-07-22T03:44:50;3.67;;;2.97;;
25437;SDS011;13364;49.084;9.978;2023-07-22T03:47:18;4.47;;;2.92;;
25437;SDS011;13364;49.084;9.978;2023-07-22T03:49:46;3.45;;;2.75;;
25437;SDS011;13364;49.084;9.978;2023-07-22T03:52:13;2.88;;;2.60;;
25437;SDS011;13364;49.084;9.978;2023-07-22T03:54:40;2.92;;;2.53;;
25437;SDS011;13364;49.084;9.978;2023-07-22T03:57:07;3.88;;;2.42;;
25437;SDS011;13364;49.084;9.978;2023-07-22T03:59:34;3.15;;;2.85;;
25437;SDS011;13364;49.084;9.978;2023-07-22T04:02:02;4.95;;;2.80;;
25437;SDS011;13364;49.084;9.978;2023-07-22T04:04:29;3.67;;;2.50;;
25437;SDS011;13364;49.084;9.978;2023-07-22T04:06:56;3.03;;;2.47;;
25437;SDS011;13364;49.084;9.978;2023-07-22T04:09:23;3.97;;;2.20;;
25437;SDS011;13364;49.084;9.978;2023-07-22T04:11:51;4.72;;;2.65;;
25437;SDS011;13364;49.084;9.978;2023-07-22T04:14:18;6.18;;;2.50;;
25437;SDS011;13364;49.084;9.978;2023-07-22T04:16:45;7.05;;;2.72;;
25437;SDS011;13364;49.084;9.978;2023-07-22T04:19:15;2.90;;;2.30;;
25437;SDS011;13364;49.084;9.978;2023-07-22T04:21:43;4.50;;;2.83;;
25437;SDS011;13364;49.084;9.978;2023-07-22T04:24:10;5.63;;;2.78;;
25437;SDS011;13364;49.084;9.978;2023-07-22T04:29:30;4.70;;;2.83;;
25437;SDS011;13364;49.084;9.978;2023-07-22T04:32:01;3.30;;;2.65;;
25437;SDS011;13364;49.084;9.978;2023-07-22T04:34:28;3.60;;;2.80;;
25437;SDS011;13364;49.084;9.978;2023-07-22T04:36:56;3.63;;;2.70;;
25437;SDS011;13364;49.084;9.978;2023-07-22T04:39:23;2.55;;;2.00;;
25437;SDS011;13364;49.084;9.978;2023-07-22T04:41:50;3.65;;;2.33;;
25437;SDS011;13364;49.084;9.978;2023-07-22T04:44:18;3.10;;;2.45;;
25437;SDS011;13364;49.084;9.978;2023-07-22T04:46:46;4.47;;;2.45;;
25437;SDS011;13364;49.084;9.978;2023-07-22T04:49:13;2.70;;;2.45;;
25437;SDS011;13364;49.084;9.978;2023-07-22T04:51:45;3.58;;;2.03;;
25437;SDS011;13364;49.084;9.978;2023-07-22T04:54:12;4.07;;;3.00;;
25437;SDS011;13364;49.084;9.978;2023-07-22T04:56:41;4.43;;;2.83;;
25437;SDS011;13364;49.084;9.978;2023-07-22T04:59:09;3.55;;;2.97;;
25437;SDS011;13364;49.084;9.978;2023-07-22T05:01:36;4.60;;;3.30;;
25437;SDS011;13364;49.084;9.978;2023-07-22T05:04:04;4.15;;;2.78;;
25437;SDS011;13364;49.084;9.978;2023-07-22T05:06:31;5.32;;;2.80;;
25437;SDS011;13364;49.084;9.978;2023-07-22T05:08:59;5.45;;;3.00;;
25437;SDS011;13364;49.084;9.978;2023-07-22T05:11:26;5.10;;;2.67;;
25437;SDS011;13364;49.084;9.978;2023-07-22T05:13:53;3.53;;;2.50;;
25437;SDS011;13364;49.084;9.978;2023-07-22T05:16:20;4.13;;;3.00;;
25437;SDS011;13364;49.084;9.978;2023-07-22T05:18:48;2.33;;;2.10;;
25437;SDS011;13364;49.084;9.978;2023-07-22T05:21:15;3.95;;;2.50;;
25437;SDS011;13364;49.084;9.978;2023-07-22T05:23:42;3.15;;;2.42;;
25437;SDS011;13364;49.084;9.978;2023-07-22T05:26:09;3.47;;;2.78;;
25437;SDS011;13364;49.084;9.978;2023-07-22T05:28:36;3.80;;;2.63;;
25437;SDS011;13364;49.084;9.978;2023-07-22T05:31:04;4.50;;;3.10;;
25437;SDS011;13364;49.084;9.978;2023-07-22T05:33:31;3.63;;;2.90;;
25437;SDS011;13364;49.084;9.978;2023-07-22T05:35:58;4.35;;;3.05;;
25437;SDS011;13364;49.084;9.978;2023-07-22T05:38:25;5.13;;;3.40;;
25437;SDS011;13364;49.084;9.978;2023-07-22T05:40:52;4.90;;;3.58;;
25437;SDS011;13364;49.084;9.978;2023-07-22T05:43:20;5.05;;;3.10;;
25437;SDS011;13364;49.084;9.978;2023-07-22T05:45:48;2.85;;;2.50;;
25437;SDS011;13364;49.084;9.978;2023-07-22T05:48:15;5.07;;;2.70;;
25437;SDS011;13364;49.084;9.978;2023-07-22T05:50:42;3.38;;;2.83;;
25437;SDS011;13364;49.084;9.978;2023-07-22T05:53:09;6.82;;;3.00;;
25437;SDS011;13364;49.084;9.978;2023-07-22T05:55:37;4.07;;;2.75;;
25437;SDS011;13364;49.084;9.978;2023-07-22T05:58:04;5.65;;;2.50;;
25437;SDS011;13364;49.084;9.978;2023-07-22T06:00:34;3.83;;;2.63;;
25437;SDS011;13364;49.084;9.978;2023-07-22T06:03:01;3.50;;;2.70;;
25437;SDS011;13364;49.084;9.978;2023-07-22T06:05:29;2.80;;;2.10;;
25437;SDS011;13364;49.084;9.978;2023-07-22T06:07:56;4.10;;;2.47;;
25437;SDS011;13364;49.084;9.978;2023-07-22T06:10:24;3.72;;;2.60;;
25437;SDS011;13364;49.084;9.978;2023-07-22T06:12:51;5.18;;;2.60;;
25437;SDS011;13364;49.084;9.978;2023-07-22T06:15:18;3.25;;;2.67;;
25437;SDS011;13364;49.084;9.978;2023-07-22T06:17:46;2.75;;;2.53;;
25437;SDS011;13364;49.084;9.978;2023-07-22T06:20:13;4.75;;;2.55;;
25437;SDS011;13364;49.084;9.978;2023-07-22T06:22:40;2.85;;;2.13;;
25437;SDS011;13364;49.084;9.978;2023-07-22T06:25:07;3.40;;;2.60;;
25437;SDS011;13364;49.084;9.978;2023-07-22T06:27:35;3.78;;;2.83;;
25437;SDS011;13364;49.084;9.978;2023-07-22T06:30:02;3.35;;;2.30;;
25437;SDS011;13364;49.084;9.978;2023-07-22T06:32:30;4.13;;;2.60;;
25437;SDS011;13364;49.084;9.978;2023-07-22T06:34:57;4.60;;;2.30;;
25437;SDS011;13364;49.084;9.978;2023-07-22T06:37:25;4.65;;;2.60;;
25437;SDS011;13364;49.084;9.978;2023-07-22T06:39:52;2.85;;;2.33;;
25437;SDS011;13364;49.084;9.978;2023-07-22T06:42:19;2.55;;;2.35;;
25437;SDS011;13364;49.084;9.978;2023-07-22T06:44:47;2.88;;;2.22;;
25437;SDS011;13364;49.084;9.978;2023-07-22T06:47:14;3.97;;;2.38;;
25437;SDS011;13364;49.084;9.978;2023-07-22T06:49:41;5.93;;;2.65;;
25437;SDS011;13364;49.084;9.978;2023-07-22T06:52:12;4.18;;;2.55;;
25437;SDS011;13364;49.084;9.978;2023-07-22T06:54:39;5.05;;;2.53;;
25437;SDS011;13364;49.084;9.978;2023-07-22T06:57:07;4.07;;;2.65;;
25437;SDS011;13364;49.084;9.978;2023-07-22T06:59:34;6.00;;;2.38;;
25437;SDS011;13364;49.084;9.978;2023-07-22T07:02:02;2.40;;;2.00;;
25437;SDS011;13364;49.084;9.978;2023-07-22T07:04:31;5.10;;;3.03;;
25437;SDS011;13364;49.084;9.978;2023-07-22T07:06:58;3.33;;;2.10;;
25437;SDS011;13364;49.084;9.978;2023-07-22T07:09:26;3.55;;;2.50;;
25437;SDS011;13364;49.084;9.978;2023-07-22T07:11:53;3.25;;;2.65;;
25437;SDS011;13364;49.084;9.978;2023-07-22T07:14:23;2.63;;;2.00;;
25437;SDS011;13364;49.084;9.978;2023-07-22T07:16:54;9.48;;;2.28;;
25437;SDS011;13364;49.084;9.978;2023-07-22T07:19:22;3.80;;;2.50;;
25437;SDS011;13364;49.084;9.978;2023-07-22T07:21:49;3.35;;;2.22;;
25437;SDS011;13364;49.084;9.978;2023-07-22T07:24:16;3.10;;;2.70;;
25437;SDS011;13364;49.084;9.978;2023-07-22T07:26:48;2.50;;;2.10;;
25437;SDS011;13364;49.084;9.978;2023-07-22T07:29:15;3.13;;;2.55;;
25437;SDS011;13364;49.084;9.978;2023-07-22T07:32:02;4.60;;;2.50;;
25437;SDS011;13364;49.084;9.978;2023-07-22T07:34:30;3.65;;;2.22;;
25437;SDS011;13364;49.084;9.978;2023-07-22T07:36:57;3.28;;;2.50;;
25437;SDS011;13364;49.084;9.978;2023-07-22T07:39:24;4.25;;;2.55;;
25437;SDS011;13364;49.084;9.978;2023-07-22T07:41:51;3.80;;;2.75;;
25437;SDS011;13364;49.084;9.978;2023-07-22T07:44:18;4.80;;;2.53;;
25437;SDS011;13364;49.084;9.978;2023-07-22T07:46:45;3.30;;;2.30;;
25437;SDS011;13364;49.084;9.978;2023-07-22T07:49:12;3.15;;;2.38;;
25437;SDS011;13364;49.084;9.978;2023-07-22T07:51:39;4.38;;;2.70;;
25437;SDS011;13364;49.084;9.978;2023-07-22T07:54:06;5.00;;;2.40;;
25437;SDS011;13364;49.084;9.978;2023-07-22T07:56:34;3.22;;;2.25;;
25437;SDS011;13364;49.084;9.978;2023-07-22T07:59:01;3.20;;;2.40;;
25437;SDS011;13364;49.084;9.978;2023-07-22T08:01:29;3.20;;;2.60;;
25437;SDS011;13364;49.084;9.978;2023-07-22T08:03:56;4.03;;;2.55;;
25437;SDS011;13364;49.084;9.978;2023-07-22T08:06:23;5.40;;;2.88;;
25437;SDS011;13364;49.084;9.978;2023-07-22T08:08:50;4.18;;;2.97;;
25437;SDS011;13364;49.084;9.978;2023-07-22T08:11:17;3.15;;;2.30;;
25437;SDS011;13364;49.084;9.978;2023-07-22T08:13:44;4.55;;;2.55;;
25437;SDS011;13364;49.084;9.978;2023-07-22T08:16:12;3.53;;;2.90;;
25437;SDS011;13364;49.084;9.978;2023-07-22T08:18:40;3.78;;;2.38;;
25437;SDS011;13364;49.084;9.978;2023-07-22T08:21:07;4.45;;;2.42;;
25437;SDS011;13364;49.084;9.978;2023-07-22T08:23:35;4.47;;;2.42;;
25437;SDS011;13364;49.084;9.978;2023-07-22T08:26:04;2.72;;;2.15;;
25437;SDS011;13364;49.084;9.978;2023-07-22T08:28:34;4.82;;;2.00;;
25437;SDS011;13364;49.084;9.978;2023-07-22T08:31:01;3.95;;;2.28;;
25437;SDS011;13364;49.084;9.978;2023-07-22T08:33:29;3.67;;;2.35;;
25437;SDS011;13364;49.084;9.978;2023-07-22T08:36:07;5.63;;;2.47;;
25437;SDS011;13364;49.084;9.978;2023-07-22T08:38:35;2.17;;;1.98;;
25437;SDS011;13364;49.084;9.978;2023-07-22T08:41:02;3.25;;;1.80;;
25437;SDS011;13364;49.084;9.978;2023-07-22T08:43:29;3.15;;;1.80;;
25437;SDS011;13364;49.084;9.978;2023-07-22T08:48:29;2.55;;;1.73;;
25437;SDS011;13364;49.084;9.978;2023-07-22T08:51:04;2.33;;;1.88;;
25437;SDS011;13364;49.084;9.978;2023-07-22T08:53:33;3.55;;;2.25;;
25437;SDS011;13364;49.084;9.978;2023-07-22T08:56:00;4.63;;;2.03;;
25437;SDS011;13364;49.084;9.978;2023-07-22T08:58:28;3.67;;;1.88;;
25437;SDS011;13364;49.084;9.978;2023-07-22T09:00:56;3.75;;;2.20;;
25437;SDS011;13364;49.084;9.978;2023-07-22T09:03:25;3.85;;;1.70;;
25437;SDS011;13364;49.084;9.978;2023-07-22T09:05:52;2.88;;;1.77;;
25437;SDS011;13364;49.084;9.978;2023-07-22T09:08:20;1.70;;;1.60;;
25437;SDS011;13364;49.084;9.978;2023-07-22T09:10:48;1.55;;;1.45;;
25437;SDS011;13364;49.084;9.978;2023-07-22T09:13:15;2.10;;;1.65;;
25437;SDS011;13364;49.084;9.978;2023-07-22T09:15:43;3.67;;;1.45;;
25437;SDS011;13364;49.084;9.978;2023-07-22T09:18:12;1.83;;;1.60;;
25437;SDS011;13364;49.084;9.978;2023-07-22T09:20:41;2.33;;;1.90;;
25437;SDS011;13364;49.084;9.978;2023-07-22T09:23:09;1.85;;;1.60;;
25437;SDS011;13364;49.084;9.978;2023-07-22T09:25:40;2.08;;;1.77;;
25437;SDS011;13364;49.084;9.978;2023-07-22T09:28:08;2.60;;;1.40;;
25437;SDS011;13364;49.084;9.978;2023-07-22T09:30:37;4.00;;;1.90;;
25437;SDS011;13364;49.084;9.978;2023-07-22T09:33:07;3.50;;;1.67;;
25437;SDS011;13364;49.084;9.978;2023-07-22T09:35:47;3.65;;;1.90;;
25437;SDS011;13364;49.084;9.978;2023-07-22T09:38:15;2.17;;;1.58;;
25437;SDS011;13364;49.084;9.978;2023-07-22T09:40:49;2.42;;;1.85;;
25437;SDS011;13364;49.084;9.978;2023-07-22T09:43:16;2.90;;;1.80;;
25437;SDS011;13364;49.084;9.978;2023-07-22T09:45:45;3.35;;;1.92;;
25437;SDS011;13364;49.084;9.978;2023-07-22T09:48:14;1.80;;;1.48;;
25437;SDS011;13364;49.084;9.978;2023-07-22T09:50:41;2.05;;;1.50;;
25437;SDS011;13364;49.084;9.978;2023-07-22T09:53:08;2.95;;;1.77;;
25437;SDS011;13364;49.084;9.978;2023-07-22T09:55:47;3.28;;;1.63;;
25437;SDS011;13364;49.084;9.978;2023-07-22T09:58:14;2.78;;;1.40;;
25437;SDS011;13364;49.084;9.978;2023-07-22T10:00:42;2.10;;;1.58;;
25437;SDS011;13364;49.084;9.978;2023-07-22T10:03:15;3.53;;;1.70;;
25437;SDS011;13364;49.084;9.978;2023-07-22T10:05:45;3.72;;;1.73;;
25437;SDS011;13364;49.084;9.978;2023-07-22T10:08:14;2.72;;;1.67;;
25437;SDS011;13364;49.084;9.978;2023-07-22T10:10:44;2.17;;;1.80;;
25437;SDS011;13364;49.084;9.978;2023-07-22T10:13:12;2.65;;;1.83;;
25437;SDS011;13364;49.084;9.978;2023-07-22T10:15:39;2.20;;;1.83;;
25437;SDS011;13364;49.084;9.978;2023-07-22T10:18:11;4.43;;;2.00;;
25437;SDS011;13364;49.084;9.978;2023-07-22T10:20:39;2.70;;;1.48;;
25437;SDS011;13364;49.084;9.978;2023-07-22T10:23:07;1.92;;;1.83;;
25437;SDS011;13364;49.084;9.978;2023-07-22T10:25:35;2.42;;;1.60;;
25437;SDS011;13364;49.084;9.978;2023-07-22T10:28:03;3.05;;;1.80;;
25437;SDS011;13364;49.084;9.978;2023-07-22T10:30:32;3.05;;;2.00;;
25437;SDS011;13364;49.084;9.978;2023-07-22T10:33:00;2.80;;;1.48;;
25437;SDS011;13364;49.084;9.978;2023-07-22T10:40:44;3.25;;;2.00;;
25437;SDS011;13364;49.084;9.978;2023-07-22T10:43:15;3.47;;;1.90;;
25437;SDS011;13364;49.084;9.978;2023-07-22T10:45:54;4.35;;;1.67;;
25437;SDS011;13364;49.084;9.978;2023-07-22T10:48:23;1.90;;;1.65;;
25437;SDS011;13364;49.084;9.978;2023-07-22T10:51:11;3.45;;;1.75;;
25437;SDS011;13364;49.084;9.978;2023-07-22T10:53:43;2.67;;;1.80;;
25437;SDS011;13364;49.084;9.978;2023-07-22T10:56:12;2.80;;;1.50;;
25437;SDS011;13364;49.084;9.978;2023-07-22T11:01:23;2.17;;;1.73;;
25437;SDS011;13364;49.084;9.978;2023-07-22T11:07:08;3.22;;;1.90;;
25437;SDS011;13364;49.084;9.978;2023-07-22T11:09:37;1.95;;;1.60;;
25437;SDS011;13364;49.084;9.978;2023-07-22T11:12:06;4.88;;;2.05;;
25437;SDS011;13364;49.084;9.978;2023-07-22T11:17:16;3.28;;;1.90;;
25437;SDS011;13364;49.084;9.978;2023-07-22T11:19:44;3.33;;;1.88;;
25437;SDS011;13364;49.084;9.978;2023-07-22T11:25:04;2.17;;;1.75;;
25437;SDS011;13364;49.084;9.978;2023-07-22T11:27:32;3.05;;;2.10;;
25437;SDS011;13364;49.084;9.978;2023-07-22T11:29:59;6.38;;;2.10;;
25437;SDS011;13364;49.084;9.978;2023-07-22T11:32:31;2.17;;;1.85;;
25437;SDS011;13364;49.084;9.978;2023-07-22T11:34:59;2.90;;;2.00;;
25437;SDS011;13364;49.084;9.978;2023-07-22T11:37:29;2.20;;;2.00;;
25437;SDS011;13364;49.084;9.978;2023-07-22T11:40:00;4.05;;;2.10;;
25437;SDS011;13364;49.084;9.978;2023-07-22T11:42:28;2.50;;;1.85;;
25437;SDS011;13364;49.084;9.978;2023-07-22T11:44:56;2.95;;;1.92;;
25437;SDS011;13364;49.084;9.978;2023-07-22T11:47:29;2.60;;;2.00;;
25437;SDS011;13364;49.084;9.978;2023-07-22T11:50:00;4.07;;;2.30;;
25437;SDS011;13364;49.084;9.978;2023-07-22T11:52:27;2.47;;;2.03;;
25437;SDS011;13364;49.084;9.978;2023-07-22T11:54:54;2.05;;;1.80;;
25437;SDS011;13364;49.084;9.978;2023-07-22T11:57:28;2.38;;;2.00;;
25437;SDS011;13364;49.084;9.978;2023-07-22T11:59:55;2.17;;;1.90;;
25437;SDS011;13364;49.084;9.978;2023-07-22T12:02:24;3.88;;;2.20;;
25437;SDS011;13364;49.084;9.978;2023-07-22T12:07:30;2.60;;;2.38;;
25437;SDS011;13364;49.084;9.978;2023-07-22T12:10:05;3.22;;;1.80;;
25437;SDS011;13364;49.084;9.978;2023-07-22T12:12:43;2.70;;;1.70;;
25437;SDS011;13364;49.084;9.978;2023-07-22T12:15:17;3.03;;;1.92;;
25437;SDS011;13364;49.084;9.978;2023-07-22T12:20:19;2.00;;;1.77;;
25437;SDS011;13364;49.084;9.978;2023-07-22T12:22:53;2.17;;;1.98;;
25437;SDS011;13364;49.084;9.978;2023-07-22T12:25:21;2.72;;;2.10;;
25437;SDS011;13364;49.084;9.978;2023-07-22T12:27:48;2.60;;;1.98;;
25437;SDS011;13364;49.084;9.978;2023-07-22T12:30:16;3.40;;;1.70;;
25437;SDS011;13364;49.084;9.978;2023-07-22T12:32:46;3.85;;;2.20;;
25437;SDS011;13364;49.084;9.978;2023-07-22T12:35:14;3.40;;;1.85;;
25437;SDS011;13364;49.084;9.978;2023-07-22T12:37:42;2.60;;;2.17;;
25437;SDS011;13364;49.084;9.978;2023-07-22T12:40:09;2.63;;;1.98;;
25437;SDS011;13364;49.084;9.978;2023-07-22T12:42:39;4.25;;;2.03;;
25437;SDS011;13364;49.084;9.978;2023-07-22T12:45:08;2.20;;;2.00;;
25437;SDS011;13364;49.084;9.978;2023-07-22T12:47:40;5.38;;;2.13;;
25437;SDS011;13364;49.084;9.978;2023-07-22T12:50:09;2.13;;;1.88;;
25437;SDS011;13364;49.084;9.978;2023-07-22T12:52:37;2.28;;;1.88;;
25437;SDS011;13364;49.084;9.978;2023-07-22T12:55:04;4.55;;;2.05;;
25437;SDS011;13364;49.084;9.978;2023-07-22T12:57:31;3.90;;;2.17;;
25437;SDS011;13364;49.084;9.978;2023-07-22T12:59:59;2.40;;;1.80;;
25437;SDS011;13364;49.084;9.978;2023-07-22T13:02:26;6.53;;;2.00;;
25437;SDS011;13364;49.084;9.978;2023-07-22T13:04:53;2.47;;;1.85;;
25437;SDS011;13364;49.084;9.978;2023-07-22T13:07:21;3.15;;;2.00;;
25437;SDS011;13364;49.084;9.978;2023-07-22T13:09:48;2.63;;;1.95;;
25437;SDS011;13364;49.084;9.978;2023-07-22T13:12:17;2.15;;;1.80;;
25437;SDS011;13364;49.084;9.978;2023-07-22T13:14:51;2.70;;;1.90;;
25437;SDS011;13364;49.084;9.978;2023-07-22T13:17:18;3.33;;;1.90;;
25437;SDS011;13364;49.084;9.978;2023-07-22T13:19:47;2.63;;;2.20;;
25437;SDS011;13364;49.084;9.978;2023-07-22T13:22:14;3.13;;;2.00;;
25437;SDS011;13364;49.084;9.978;2023-07-22T13:24:48;2.08;;;1.73;;
25437;SDS011;13364;49.084;9.978;2023-07-22T13:27:20;4.63;;;2.03;;
25437;SDS011;13364;49.084;9.978;2023-07-22T13:29:48;3.58;;;2.92;;
25437;SDS011;13364;49.084;9.978;2023-07-22T13:34:45;3.65;;;2.63;;
25437;SDS011;13364;49.084;9.978;2023-07-22T13:37:13;3.63;;;2.80;;
25437;SDS011;13364;49.084;9.978;2023-07-22T13:39:40;4.13;;;2.20;;
25437;SDS011;13364;49.084;9.978;2023-07-22T13:42:09;4.43;;;2.92;;
25437;SDS011;13364;49.084;9.978;2023-07-22T13:44:37;4.38;;;3.42;;
25437;SDS011;13364;49.084;9.978;2023-07-22T13:47:06;2.38;;;2.17;;
25437;SDS011;13364;49.084;9.978;2023-07-22T13:49:33;2.92;;;2.33;;
25437;SDS011;13364;49.084;9.978;2023-07-22T13:52:00;4.85;;;2.08;;
25437;SDS011;13364;49.084;9.978;2023-07-22T13:54:27;1.70;;;1.60;;
25437;SDS011;13364;49.084;9.978;2023-07-22T13:56:54;2.53;;;1.80;;
25437;SDS011;13364;49.084;9.978;2023-07-22T13:59:21;2.03;;;1.67;;
25437;SDS011;13364;49.084;9.978;2023-07-22T14:01:48;2.95;;;2.00;;
25437;SDS011;13364;49.084;9.978;2023-07-22T14:04:15;3.05;;;2.30;;
25437;SDS011;13364;49.084;9.978;2023-07-22T14:06:41;2.10;;;1.75;;
25437;SDS011;13364;49.084;9.978;2023-07-22T14:09:08;2.20;;;2.00;;
25437;SDS011;13364;49.084;9.978;2023-07-22T14:11:35;2.08;;;1.88;;
25437;SDS011;13364;49.084;9.978;2023-07-22T14:14:02;4.63;;;1.95;;
25437;SDS011;13364;49.084;9.978;2023-07-22T14:16:29;2.15;;;1.73;;
25437;SDS011;13364;49.084;9.978;2023-07-22T14:18:56;2.50;;;1.73;;
25437;SDS011;13364;49.084;9.978;2023-07-22T14:21:23;3.17;;;1.85;;
25437;SDS011;13364;49.084;9.978;2023-07-22T14:23:51;3.30;;;2.17;;
25437;SDS011;13364;49.084;9.978;2023-07-22T14:26:18;2.10;;;1.65;;
25437;SDS011;13364;49.084;9.978;2023-07-22T14:28:46;1.98;;;1.58;;
25437;SDS011;13364;49.084;9.978;2023-07-22T14:31:13;5.32;;;2.60;;
25437;SDS011;13364;49.084;9.978;2023-07-22T14:33:40;2.75;;;2.10;;
25437;SDS011;13364;49.084;9.978;2023-07-22T14:36:07;1.98;;;1.75;;
25437;SDS011;13364;49.084;9.978;2023-07-22T14:38:35;3.08;;;2.00;;
25437;SDS011;13364;49.084;9.978;2023-07-22T14:41:02;3.20;;;1.83;;
25437;SDS011;13364;49.084;9.978;2023-07-22T14:43:29;3.08;;;1.80;;
25437;SDS011;13364;49.084;9.978;2023-07-22T14:45:56;3.25;;;2.17;;
25437;SDS011;13364;49.084;9.978;2023-07-22T14:48:23;3.55;;;2.00;;
25437;SDS011;13364;49.084;9.978;2023-07-22T14:50:50;2.03;;;1.83;;
25437;SDS011;13364;49.084;9.978;2023-07-22T14:53:18;5.38;;;1.77;;
25437;SDS011;13364;49.084;9.978;2023-07-22T14:55:45;1.80;;;1.70;;
25437;SDS011;13364;49.084;9.978;2023-07-22T14:58:12;2.50;;;1.83;;
25437;SDS011;13364;49.084;9.978;2023-07-22T15:00:39;2.90;;;1.90;;
25437;SDS011;13364;49.084;9.978;2023-07-22T15:03:06;3.38;;;1.90;;
25437;SDS011;13364;49.084;9.978;2023-07-22T15:05:34;2.70;;;1.90;;
25437;SDS011;13364;49.084;9.978;2023-07-22T15:08:01;1.90;;;1.70;;
25437;SDS011;13364;49.084;9.978;2023-07-22T15:10:28;2.55;;;1.92;;
25437;SDS011;13364;49.084;9.978;2023-07-22T15:12:55;4.15;;;2.03;;
25437;SDS011;13364;49.084;9.978;2023-07-22T15:15:22;2.40;;;2.17;;
25437;SDS011;13364;49.084;9.978;2023-07-22T15:17:50;4.32;;;2.30;;
25437;SDS011;13364;49.084;9.978;2023-07-22T15:20:17;2.50;;;2.00;;
25437;SDS011;13364;49.084;9.978;2023-07-22T15:22:44;43.70;;;4.85;;
25437;SDS011;13364;49.084;9.978;2023-07-22T15:25:11;3.13;;;2.10;;
25437;SDS011;13364;49.084;9.978;2023-07-22T15:27:38;8.02;;;2.60;;
25437;SDS011;13364;49.084;9.978;2023-07-22T15:30:05;5.05;;;2.20;;